sensor_id;sensor_type;location;lat;lon;timestamp;P1;durP1;ratioP1;P2;durP2;ratioP2
34765;SDS011;20984;43.508;1.504;2023-12-14T00:01:26;5.10;;;3.33;;
34765;SDS011;20984;43.508;1.504;2023-12-14T00:03:52;3.65;;;2.97;;
34765;SDS011;20984;43.508;1.504;2023-12-14T00:06:18;7.03;;;3.67;;
34765;SDS011;20984;43.508;1.504;2023-12-14T00:08:44;7.40;;;3.00;;
34765;SDS011;20984;43.508;1.504;2023-12-14T00:11:10;3.38;;;2.90;;
34765;SDS011;20984;43.508;1.504;2023-12-14T00:13:36;6.50;;;2.95;;
34765;SDS011;20984;43.508;1.504;2023-12-14T00:16:02;3.28;;;2.75;;
34765;SDS011;20984;43.508;1.504;2023-12-14T00:18:28;6.95;;;3.00;;
34765;SDS011;20984;43.508;1.504;2023-12-14T00:20:54;3.90;;;2.80;;
34765;SDS011;20984;43.508;1.504;2023-12-14T00:23:20;9.35;;;3.13;;
34765;SDS011;20984;43.508;1.504;2023-12-14T00:25:46;6.47;;;3.17;;
34765;SDS011;20984;43.508;1.504;2023-12-14T00:28:11;4.05;;;2.78;;
34765;SDS011;20984;43.508;1.504;2023-12-14T00:30:37;5.65;;;3.00;;
34765;SDS011;20984;43.508;1.504;2023-12-14T00:33:03;3.17;;;2.88;;
34765;SDS011;20984;43.508;1.504;2023-12-14T00:35:29;5.20;;;3.53;;
34765;SDS011;20984;43.508;1.504;2023-12-14T00:37:54;5.90;;;2.95;;
34765;SDS011;20984;43.508;1.504;2023-12-14T00:40:20;2.42;;;2.22;;
34765;SDS011;20984;43.508;1.504;2023-12-14T00:42:46;6.47;;;2.75;;
34765;SDS011;20984;43.508;1.504;2023-12-14T00:45:11;3.65;;;3.13;;
34765;SDS011;20984;43.508;1.504;2023-12-14T00:47:37;6.82;;;2.83;;
34765;SDS011;20984;43.508;1.504;2023-12-14T00:50:03;4.05;;;3.00;;
34765;SDS011;20984;43.508;1.504;2023-12-14T00:52:29;8.45;;;3.20;;
34765;SDS011;20984;43.508;1.504;2023-12-14T00:54:55;6.30;;;2.90;;
34765;SDS011;20984;43.508;1.504;2023-12-14T00:57:20;3.75;;;2.70;;
34765;SDS011;20984;43.508;1.504;2023-12-14T00:59:46;3.97;;;2.90;;
34765;SDS011;20984;43.508;1.504;2023-12-14T01:02:12;5.40;;;2.97;;
34765;SDS011;20984;43.508;1.504;2023-12-14T01:04:37;7.35;;;3.08;;
34765;SDS011;20984;43.508;1.504;2023-12-14T01:07:03;7.93;;;2.88;;
34765;SDS011;20984;43.508;1.504;2023-12-14T01:09:29;5.68;;;2.70;;
34765;SDS011;20984;43.508;1.504;2023-12-14T01:11:55;4.13;;;2.55;;
34765;SDS011;20984;43.508;1.504;2023-12-14T01:14:21;4.10;;;2.95;;
34765;SDS011;20984;43.508;1.504;2023-12-14T01:16:46;5.55;;;3.17;;
34765;SDS011;20984;43.508;1.504;2023-12-14T01:19:12;8.70;;;3.53;;
34765;SDS011;20984;43.508;1.504;2023-12-14T01:21:38;4.82;;;2.92;;
34765;SDS011;20984;43.508;1.504;2023-12-14T01:24:03;6.30;;;3.35;;
34765;SDS011;20984;43.508;1.504;2023-12-14T01:26:29;3.75;;;3.00;;
34765;SDS011;20984;43.508;1.504;2023-12-14T01:28:55;3.22;;;2.80;;
34765;SDS011;20984;43.508;1.504;2023-12-14T01:31:21;4.85;;;3.17;;
34765;SDS011;20984;43.508;1.504;2023-12-14T01:33:49;9.13;;;4.63;;
34765;SDS011;20984;43.508;1.504;2023-12-14T01:36:21;9.90;;;2.95;;
34765;SDS011;20984;43.508;1.504;2023-12-14T01:38:48;4.05;;;3.30;;
34765;SDS011;20984;43.508;1.504;2023-12-14T01:41:14;8.00;;;3.22;;
34765;SDS011;20984;43.508;1.504;2023-12-14T01:43:39;3.90;;;2.83;;
34765;SDS011;20984;43.508;1.504;2023-12-14T01:46:05;9.05;;;3.90;;
34765;SDS011;20984;43.508;1.504;2023-12-14T01:48:31;4.20;;;2.97;;
34765;SDS011;20984;43.508;1.504;2023-12-14T01:50:56;4.03;;;3.00;;
34765;SDS011;20984;43.508;1.504;2023-12-14T01:53:22;4.82;;;3.30;;
34765;SDS011;20984;43.508;1.504;2023-12-14T01:55:49;13.27;;;3.60;;
34765;SDS011;20984;43.508;1.504;2023-12-14T01:58:15;8.63;;;4.22;;
34765;SDS011;20984;43.508;1.504;2023-12-14T02:03:07;6.68;;;4.00;;
34765;SDS011;20984;43.508;1.504;2023-12-14T02:05:32;10.00;;;3.67;;
34765;SDS011;20984;43.508;1.504;2023-12-14T02:07:58;4.25;;;3.55;;
34765;SDS011;20984;43.508;1.504;2023-12-14T02:10:23;6.63;;;4.20;;
34765;SDS011;20984;43.508;1.504;2023-12-14T02:12:49;6.32;;;3.85;;
34765;SDS011;20984;43.508;1.504;2023-12-14T02:15:15;7.90;;;3.58;;
34765;SDS011;20984;43.508;1.504;2023-12-14T02:17:40;4.93;;;3.30;;
34765;SDS011;20984;43.508;1.504;2023-12-14T02:20:06;6.78;;;3.60;;
34765;SDS011;20984;43.508;1.504;2023-12-14T02:22:35;5.30;;;3.78;;
34765;SDS011;20984;43.508;1.504;2023-12-14T02:25:13;9.20;;;3.33;;
34765;SDS011;20984;43.508;1.504;2023-12-14T02:27:38;6.13;;;4.20;;
34765;SDS011;20984;43.508;1.504;2023-12-14T02:30:04;11.38;;;4.25;;
34765;SDS011;20984;43.508;1.504;2023-12-14T02:32:30;6.50;;;3.60;;
34765;SDS011;20984;43.508;1.504;2023-12-14T02:34:56;12.23;;;3.90;;
34765;SDS011;20984;43.508;1.504;2023-12-14T02:37:21;7.47;;;4.00;;
34765;SDS011;20984;43.508;1.504;2023-12-14T02:39:47;7.28;;;3.55;;
34765;SDS011;20984;43.508;1.504;2023-12-14T02:42:13;6.68;;;3.85;;
34765;SDS011;20984;43.508;1.504;2023-12-14T02:44:38;9.85;;;4.07;;
34765;SDS011;20984;43.508;1.504;2023-12-14T02:47:04;3.40;;;3.10;;
34765;SDS011;20984;43.508;1.504;2023-12-14T02:49:30;7.85;;;3.55;;
34765;SDS011;20984;43.508;1.504;2023-12-14T02:51:55;11.88;;;3.60;;
34765;SDS011;20984;43.508;1.504;2023-12-14T02:54:21;5.32;;;4.47;;
34765;SDS011;20984;43.508;1.504;2023-12-14T02:56:47;8.48;;;4.05;;
34765;SDS011;20984;43.508;1.504;2023-12-14T02:59:12;4.18;;;3.67;;
34765;SDS011;20984;43.508;1.504;2023-12-14T03:01:38;4.20;;;3.80;;
34765;SDS011;20984;43.508;1.504;2023-12-14T03:04:04;9.90;;;3.72;;
34765;SDS011;20984;43.508;1.504;2023-12-14T03:06:31;4.55;;;3.63;;
34765;SDS011;20984;43.508;1.504;2023-12-14T03:08:57;3.42;;;3.13;;
34765;SDS011;20984;43.508;1.504;2023-12-14T03:11:22;10.70;;;4.10;;
34765;SDS011;20984;43.508;1.504;2023-12-14T03:13:48;5.50;;;3.65;;
34765;SDS011;20984;43.508;1.504;2023-12-14T03:16:14;7.10;;;3.53;;
34765;SDS011;20984;43.508;1.504;2023-12-14T03:18:42;5.65;;;3.33;;
34765;SDS011;20984;43.508;1.504;2023-12-14T03:21:08;5.57;;;3.60;;
34765;SDS011;20984;43.508;1.504;2023-12-14T03:23:34;6.13;;;3.85;;
34765;SDS011;20984;43.508;1.504;2023-12-14T03:26:00;5.35;;;3.72;;
34765;SDS011;20984;43.508;1.504;2023-12-14T03:28:26;7.80;;;3.90;;
34765;SDS011;20984;43.508;1.504;2023-12-14T03:30:52;8.45;;;5.07;;
34765;SDS011;20984;43.508;1.504;2023-12-14T03:33:18;7.28;;;3.45;;
34765;SDS011;20984;43.508;1.504;2023-12-14T03:35:44;4.78;;;4.28;;
34765;SDS011;20984;43.508;1.504;2023-12-14T03:38:11;5.55;;;3.95;;
34765;SDS011;20984;43.508;1.504;2023-12-14T03:40:40;9.02;;;3.92;;
34765;SDS011;20984;43.508;1.504;2023-12-14T03:43:05;5.35;;;3.45;;
34765;SDS011;20984;43.508;1.504;2023-12-14T03:45:31;3.97;;;3.65;;
34765;SDS011;20984;43.508;1.504;2023-12-14T03:47:57;4.38;;;3.80;;
34765;SDS011;20984;43.508;1.504;2023-12-14T03:50:22;6.35;;;3.65;;
34765;SDS011;20984;43.508;1.504;2023-12-14T03:52:48;16.42;;;4.47;;
34765;SDS011;20984;43.508;1.504;2023-12-14T03:55:14;5.68;;;4.18;;
34765;SDS011;20984;43.508;1.504;2023-12-14T03:57:40;8.32;;;3.33;;
34765;SDS011;20984;43.508;1.504;2023-12-14T04:00:09;7.78;;;4.18;;
34765;SDS011;20984;43.508;1.504;2023-12-14T04:02:36;8.43;;;4.95;;
34765;SDS011;20984;43.508;1.504;2023-12-14T04:05:01;5.28;;;4.10;;
34765;SDS011;20984;43.508;1.504;2023-12-14T04:07:27;10.05;;;4.10;;
34765;SDS011;20984;43.508;1.504;2023-12-14T04:09:53;5.25;;;3.90;;
34765;SDS011;20984;43.508;1.504;2023-12-14T04:12:18;10.93;;;4.40;;
34765;SDS011;20984;43.508;1.504;2023-12-14T04:14:45;10.20;;;4.30;;
34765;SDS011;20984;43.508;1.504;2023-12-14T04:17:11;5.45;;;4.05;;
34765;SDS011;20984;43.508;1.504;2023-12-14T04:19:40;7.90;;;3.92;;
34765;SDS011;20984;43.508;1.504;2023-12-14T04:22:06;10.75;;;4.32;;
34765;SDS011;20984;43.508;1.504;2023-12-14T04:24:32;10.63;;;4.75;;
34765;SDS011;20984;43.508;1.504;2023-12-14T04:26:59;6.72;;;4.55;;
34765;SDS011;20984;43.508;1.504;2023-12-14T04:29:25;12.35;;;4.85;;
34765;SDS011;20984;43.508;1.504;2023-12-14T04:31:51;8.13;;;4.45;;
34765;SDS011;20984;43.508;1.504;2023-12-14T04:34:18;5.05;;;4.32;;
34765;SDS011;20984;43.508;1.504;2023-12-14T04:36:46;7.70;;;4.40;;
34765;SDS011;20984;43.508;1.504;2023-12-14T04:39:13;7.13;;;4.00;;
34765;SDS011;20984;43.508;1.504;2023-12-14T04:41:38;4.72;;;4.32;;
34765;SDS011;20984;43.508;1.504;2023-12-14T04:44:04;9.13;;;5.63;;
34765;SDS011;20984;43.508;1.504;2023-12-14T04:46:30;10.73;;;4.00;;
34765;SDS011;20984;43.508;1.504;2023-12-14T04:48:55;9.40;;;5.15;;
34765;SDS011;20984;43.508;1.504;2023-12-14T04:51:21;6.82;;;4.35;;
34765;SDS011;20984;43.508;1.504;2023-12-14T04:53:47;9.07;;;4.68;;
34765;SDS011;20984;43.508;1.504;2023-12-14T04:56:12;9.05;;;5.43;;
34765;SDS011;20984;43.508;1.504;2023-12-14T04:58:39;5.03;;;4.22;;
34765;SDS011;20984;43.508;1.504;2023-12-14T05:01:05;8.27;;;4.85;;
34765;SDS011;20984;43.508;1.504;2023-12-14T05:03:31;6.68;;;4.72;;
34765;SDS011;20984;43.508;1.504;2023-12-14T05:05:57;8.10;;;4.13;;
34765;SDS011;20984;43.508;1.504;2023-12-14T05:08:23;11.05;;;4.40;;
34765;SDS011;20984;43.508;1.504;2023-12-14T05:10:49;4.78;;;4.28;;
34765;SDS011;20984;43.508;1.504;2023-12-14T05:13:15;6.13;;;5.28;;
34765;SDS011;20984;43.508;1.504;2023-12-14T05:15:41;5.93;;;4.43;;
34765;SDS011;20984;43.508;1.504;2023-12-14T05:18:06;9.55;;;4.05;;
34765;SDS011;20984;43.508;1.504;2023-12-14T05:20:32;8.88;;;4.13;;
34765;SDS011;20984;43.508;1.504;2023-12-14T05:22:59;5.55;;;4.07;;
34765;SDS011;20984;43.508;1.504;2023-12-14T05:25:25;9.50;;;4.70;;
34765;SDS011;20984;43.508;1.504;2023-12-14T05:27:50;10.50;;;4.65;;
34765;SDS011;20984;43.508;1.504;2023-12-14T05:30:16;9.45;;;5.00;;
34765;SDS011;20984;43.508;1.504;2023-12-14T05:32:43;8.43;;;6.40;;
34765;SDS011;20984;43.508;1.504;2023-12-14T05:35:09;4.38;;;3.85;;
34765;SDS011;20984;43.508;1.504;2023-12-14T05:37:35;7.05;;;4.20;;
34765;SDS011;20984;43.508;1.504;2023-12-14T05:40:01;7.50;;;3.92;;
34765;SDS011;20984;43.508;1.504;2023-12-14T05:42:27;6.32;;;4.45;;
34765;SDS011;20984;43.508;1.504;2023-12-14T05:44:53;7.93;;;4.57;;
34765;SDS011;20984;43.508;1.504;2023-12-14T05:47:19;6.25;;;4.43;;
34765;SDS011;20984;43.508;1.504;2023-12-14T05:49:44;10.23;;;4.68;;
34765;SDS011;20984;43.508;1.504;2023-12-14T05:52:10;5.88;;;4.10;;
34765;SDS011;20984;43.508;1.504;2023-12-14T05:54:37;8.60;;;4.35;;
34765;SDS011;20984;43.508;1.504;2023-12-14T05:57:03;7.40;;;4.88;;
34765;SDS011;20984;43.508;1.504;2023-12-14T05:59:29;5.90;;;4.55;;
34765;SDS011;20984;43.508;1.504;2023-12-14T06:01:58;9.63;;;4.28;;
34765;SDS011;20984;43.508;1.504;2023-12-14T06:04:25;8.82;;;4.70;;
34765;SDS011;20984;43.508;1.504;2023-12-14T06:06:51;7.53;;;4.65;;
34765;SDS011;20984;43.508;1.504;2023-12-14T06:09:17;5.60;;;4.10;;
34765;SDS011;20984;43.508;1.504;2023-12-14T06:11:46;9.52;;;4.97;;
34765;SDS011;20984;43.508;1.504;2023-12-14T06:14:12;5.05;;;4.47;;
34765;SDS011;20984;43.508;1.504;2023-12-14T06:16:38;8.20;;;4.22;;
34765;SDS011;20984;43.508;1.504;2023-12-14T06:19:04;6.35;;;4.63;;
34765;SDS011;20984;43.508;1.504;2023-12-14T06:21:29;10.07;;;4.78;;
34765;SDS011;20984;43.508;1.504;2023-12-14T06:23:55;6.40;;;4.35;;
34765;SDS011;20984;43.508;1.504;2023-12-14T06:26:22;10.02;;;4.90;;
34765;SDS011;20984;43.508;1.504;2023-12-14T06:28:48;9.93;;;4.30;;
34765;SDS011;20984;43.508;1.504;2023-12-14T06:31:14;7.28;;;4.10;;
34765;SDS011;20984;43.508;1.504;2023-12-14T06:33:40;9.65;;;4.43;;
34765;SDS011;20984;43.508;1.504;2023-12-14T06:36:06;7.18;;;4.80;;
34765;SDS011;20984;43.508;1.504;2023-12-14T06:38:33;9.55;;;5.82;;
34765;SDS011;20984;43.508;1.504;2023-12-14T06:40:58;4.85;;;3.58;;
34765;SDS011;20984;43.508;1.504;2023-12-14T06:43:26;5.20;;;4.22;;
34765;SDS011;20984;43.508;1.504;2023-12-14T06:45:52;10.25;;;4.10;;
34765;SDS011;20984;43.508;1.504;2023-12-14T06:48:18;4.75;;;4.25;;
34765;SDS011;20984;43.508;1.504;2023-12-14T06:50:45;4.32;;;3.20;;
34765;SDS011;20984;43.508;1.504;2023-12-14T06:53:10;10.63;;;5.63;;
34765;SDS011;20984;43.508;1.504;2023-12-14T06:55:36;7.25;;;4.07;;
34765;SDS011;20984;43.508;1.504;2023-12-14T06:58:01;8.85;;;4.30;;
34765;SDS011;20984;43.508;1.504;2023-12-14T07:00:27;5.70;;;5.07;;
34765;SDS011;20984;43.508;1.504;2023-12-14T07:02:54;7.70;;;5.43;;
34765;SDS011;20984;43.508;1.504;2023-12-14T07:05:20;9.35;;;4.95;;
34765;SDS011;20984;43.508;1.504;2023-12-14T07:07:46;10.52;;;4.80;;
34765;SDS011;20984;43.508;1.504;2023-12-14T07:10:11;7.05;;;3.97;;
34765;SDS011;20984;43.508;1.504;2023-12-14T07:12:37;7.25;;;4.00;;
34765;SDS011;20984;43.508;1.504;2023-12-14T07:15:03;8.13;;;4.63;;
34765;SDS011;20984;43.508;1.504;2023-12-14T07:17:30;5.97;;;4.40;;
34765;SDS011;20984;43.508;1.504;2023-12-14T07:19:55;10.77;;;4.93;;
34765;SDS011;20984;43.508;1.504;2023-12-14T07:22:21;9.55;;;4.70;;
34765;SDS011;20984;43.508;1.504;2023-12-14T07:24:47;7.13;;;5.50;;
34765;SDS011;20984;43.508;1.504;2023-12-14T07:27:12;10.95;;;5.07;;
34765;SDS011;20984;43.508;1.504;2023-12-14T07:29:38;10.20;;;4.90;;
34765;SDS011;20984;43.508;1.504;2023-12-14T07:32:03;5.45;;;4.10;;
34765;SDS011;20984;43.508;1.504;2023-12-14T07:34:29;8.23;;;4.72;;
34765;SDS011;20984;43.508;1.504;2023-12-14T07:36:55;7.05;;;4.43;;
34765;SDS011;20984;43.508;1.504;2023-12-14T07:39:21;6.35;;;4.45;;
34765;SDS011;20984;43.508;1.504;2023-12-14T07:41:47;12.40;;;4.53;;
34765;SDS011;20984;43.508;1.504;2023-12-14T07:44:12;6.40;;;5.38;;
34765;SDS011;20984;43.508;1.504;2023-12-14T07:46:38;9.68;;;4.65;;
34765;SDS011;20984;43.508;1.504;2023-12-14T07:49:06;9.13;;;4.90;;
34765;SDS011;20984;43.508;1.504;2023-12-14T07:51:32;14.57;;;4.95;;
34765;SDS011;20984;43.508;1.504;2023-12-14T07:53:58;10.43;;;5.20;;
34765;SDS011;20984;43.508;1.504;2023-12-14T07:56:23;10.10;;;5.18;;
34765;SDS011;20984;43.508;1.504;2023-12-14T07:58:52;7.85;;;5.10;;
34765;SDS011;20984;43.508;1.504;2023-12-14T08:01:18;10.10;;;5.20;;
34765;SDS011;20984;43.508;1.504;2023-12-14T08:03:45;12.93;;;5.13;;
34765;SDS011;20984;43.508;1.504;2023-12-14T08:06:11;11.60;;;5.05;;
34765;SDS011;20984;43.508;1.504;2023-12-14T08:08:37;14.23;;;4.57;;
34765;SDS011;20984;43.508;1.504;2023-12-14T08:11:03;8.27;;;4.50;;
34765;SDS011;20984;43.508;1.504;2023-12-14T08:13:29;8.57;;;5.03;;
34765;SDS011;20984;43.508;1.504;2023-12-14T08:15:55;9.82;;;4.55;;
34765;SDS011;20984;43.508;1.504;2023-12-14T08:18:21;9.40;;;4.50;;
34765;SDS011;20984;43.508;1.504;2023-12-14T08:20:46;6.80;;;4.65;;
34765;SDS011;20984;43.508;1.504;2023-12-14T08:23:12;3.80;;;3.50;;
34765;SDS011;20984;43.508;1.504;2023-12-14T08:25:38;10.63;;;4.80;;
34765;SDS011;20984;43.508;1.504;2023-12-14T08:28:04;8.63;;;4.57;;
34765;SDS011;20984;43.508;1.504;2023-12-14T08:30:30;11.73;;;4.47;;
34765;SDS011;20984;43.508;1.504;2023-12-14T08:32:55;6.07;;;3.88;;
34765;SDS011;20984;43.508;1.504;2023-12-14T08:35:21;7.15;;;3.85;;
34765;SDS011;20984;43.508;1.504;2023-12-14T08:37:47;10.02;;;4.35;;
34765;SDS011;20984;43.508;1.504;2023-12-14T08:40:12;8.55;;;5.50;;
34765;SDS011;20984;43.508;1.504;2023-12-14T08:42:38;7.72;;;4.57;;
34765;SDS011;20984;43.508;1.504;2023-12-14T08:45:04;8.40;;;3.53;;
34765;SDS011;20984;43.508;1.504;2023-12-14T08:47:30;5.20;;;4.00;;
34765;SDS011;20984;43.508;1.504;2023-12-14T08:49:55;5.93;;;3.42;;
34765;SDS011;20984;43.508;1.504;2023-12-14T08:52:21;5.75;;;3.05;;
34765;SDS011;20984;43.508;1.504;2023-12-14T08:54:47;6.30;;;3.80;;
34765;SDS011;20984;43.508;1.504;2023-12-14T08:57:12;11.77;;;4.00;;
34765;SDS011;20984;43.508;1.504;2023-12-14T08:59:38;9.52;;;4.35;;
34765;SDS011;20984;43.508;1.504;2023-12-14T09:02:04;8.15;;;3.70;;
34765;SDS011;20984;43.508;1.504;2023-12-14T09:04:30;8.05;;;3.90;;
34765;SDS011;20984;43.508;1.504;2023-12-14T09:06:56;7.80;;;4.18;;
34765;SDS011;20984;43.508;1.504;2023-12-14T09:09:22;8.55;;;4.07;;
34765;SDS011;20984;43.508;1.504;2023-12-14T09:11:48;12.63;;;4.07;;
34765;SDS011;20984;43.508;1.504;2023-12-14T09:14:14;5.78;;;4.00;;
34765;SDS011;20984;43.508;1.504;2023-12-14T09:16:39;5.15;;;3.55;;
34765;SDS011;20984;43.508;1.504;2023-12-14T09:19:05;6.90;;;3.63;;
34765;SDS011;20984;43.508;1.504;2023-12-14T09:21:31;12.20;;;4.68;;
34765;SDS011;20984;43.508;1.504;2023-12-14T09:23:57;10.60;;;3.72;;
34765;SDS011;20984;43.508;1.504;2023-12-14T09:26:22;8.52;;;3.85;;
34765;SDS011;20984;43.508;1.504;2023-12-14T09:28:48;14.63;;;4.75;;
34765;SDS011;20984;43.508;1.504;2023-12-14T09:31:14;10.13;;;3.70;;
34765;SDS011;20984;43.508;1.504;2023-12-14T09:33:41;11.60;;;3.50;;
34765;SDS011;20984;43.508;1.504;2023-12-14T09:36:07;4.95;;;3.47;;
34765;SDS011;20984;43.508;1.504;2023-12-14T09:38:32;9.77;;;3.67;;
34765;SDS011;20984;43.508;1.504;2023-12-14T09:40:58;7.45;;;3.58;;
34765;SDS011;20984;43.508;1.504;2023-12-14T09:43:23;7.10;;;3.38;;
34765;SDS011;20984;43.508;1.504;2023-12-14T09:45:49;11.10;;;3.67;;
34765;SDS011;20984;43.508;1.504;2023-12-14T09:48:16;7.22;;;4.07;;
34765;SDS011;20984;43.508;1.504;2023-12-14T09:50:42;9.98;;;4.43;;
34765;SDS011;20984;43.508;1.504;2023-12-14T09:53:08;9.07;;;4.05;;
34765;SDS011;20984;43.508;1.504;2023-12-14T09:55:34;6.35;;;3.47;;
34765;SDS011;20984;43.508;1.504;2023-12-14T09:58:00;10.13;;;4.13;;
34765;SDS011;20984;43.508;1.504;2023-12-14T10:00:38;12.63;;;3.40;;
34765;SDS011;20984;43.508;1.504;2023-12-14T10:05:52;9.30;;;5.22;;
34765;SDS011;20984;43.508;1.504;2023-12-14T10:08:19;8.70;;;3.88;;
34765;SDS011;20984;43.508;1.504;2023-12-14T10:10:48;4.80;;;3.53;;
34765;SDS011;20984;43.508;1.504;2023-12-14T10:13:16;5.13;;;3.17;;
34765;SDS011;20984;43.508;1.504;2023-12-14T10:15:46;8.82;;;3.75;;
34765;SDS011;20984;43.508;1.504;2023-12-14T10:18:33;6.55;;;3.92;;
34765;SDS011;20984;43.508;1.504;2023-12-14T10:21:01;10.00;;;3.33;;
34765;SDS011;20984;43.508;1.504;2023-12-14T10:23:27;5.57;;;3.67;;
34765;SDS011;20984;43.508;1.504;2023-12-14T10:25:53;9.38;;;4.05;;
34765;SDS011;20984;43.508;1.504;2023-12-14T10:28:18;8.85;;;3.85;;
34765;SDS011;20984;43.508;1.504;2023-12-14T10:30:44;7.22;;;3.78;;
34765;SDS011;20984;43.508;1.504;2023-12-14T10:33:10;10.07;;;3.40;;
34765;SDS011;20984;43.508;1.504;2023-12-14T10:35:35;7.63;;;3.90;;
34765;SDS011;20984;43.508;1.504;2023-12-14T10:38:02;7.82;;;4.15;;
34765;SDS011;20984;43.508;1.504;2023-12-14T10:40:34;6.57;;;3.30;;
34765;SDS011;20984;43.508;1.504;2023-12-14T10:43:05;5.63;;;3.20;;
34765;SDS011;20984;43.508;1.504;2023-12-14T10:45:32;4.38;;;3.22;;
34765;SDS011;20984;43.508;1.504;2023-12-14T10:47:58;6.15;;;3.58;;
34765;SDS011;20984;43.508;1.504;2023-12-14T10:50:27;4.43;;;3.30;;
34765;SDS011;20984;43.508;1.504;2023-12-14T10:52:54;4.88;;;3.35;;
34765;SDS011;20984;43.508;1.504;2023-12-14T10:55:22;10.90;;;3.30;;
34765;SDS011;20984;43.508;1.504;2023-12-14T10:57:55;5.80;;;3.40;;
34765;SDS011;20984;43.508;1.504;2023-12-14T11:00:22;7.03;;;3.10;;
34765;SDS011;20984;43.508;1.504;2023-12-14T11:02:48;6.28;;;3.15;;
34765;SDS011;20984;43.508;1.504;2023-12-14T11:05:14;6.88;;;3.00;;
34765;SDS011;20984;43.508;1.504;2023-12-14T11:07:43;5.53;;;3.50;;
34765;SDS011;20984;43.508;1.504;2023-12-14T11:10:09;6.97;;;3.40;;
34765;SDS011;20984;43.508;1.504;2023-12-14T11:12:36;6.18;;;3.00;;
34765;SDS011;20984;43.508;1.504;2023-12-14T11:15:02;6.82;;;3.20;;
34765;SDS011;20984;43.508;1.504;2023-12-14T11:17:30;5.97;;;3.20;;
34765;SDS011;20984;43.508;1.504;2023-12-14T11:19:56;3.58;;;3.03;;
34765;SDS011;20984;43.508;1.504;2023-12-14T11:22:26;8.73;;;3.20;;
34765;SDS011;20984;43.508;1.504;2023-12-14T11:24:55;7.82;;;3.28;;
34765;SDS011;20984;43.508;1.504;2023-12-14T11:27:25;5.55;;;3.30;;
34765;SDS011;20984;43.508;1.504;2023-12-14T11:29:53;3.65;;;3.20;;
34765;SDS011;20984;43.508;1.504;2023-12-14T11:32:19;3.38;;;2.30;;
34765;SDS011;20984;43.508;1.504;2023-12-14T11:34:48;5.28;;;3.20;;
34765;SDS011;20984;43.508;1.504;2023-12-14T11:37:14;5.15;;;3.35;;
34765;SDS011;20984;43.508;1.504;2023-12-14T11:39:40;5.68;;;3.38;;
34765;SDS011;20984;43.508;1.504;2023-12-14T11:42:06;6.10;;;3.15;;
34765;SDS011;20984;43.508;1.504;2023-12-14T11:44:36;4.67;;;2.70;;
34765;SDS011;20984;43.508;1.504;2023-12-14T11:47:02;8.82;;;3.22;;
34765;SDS011;20984;43.508;1.504;2023-12-14T11:49:28;5.35;;;2.90;;
34765;SDS011;20984;43.508;1.504;2023-12-14T11:51:54;2.90;;;2.53;;
34765;SDS011;20984;43.508;1.504;2023-12-14T11:54:20;5.60;;;3.30;;
34765;SDS011;20984;43.508;1.504;2023-12-14T11:56:49;11.10;;;3.15;;
34765;SDS011;20984;43.508;1.504;2023-12-14T11:59:16;6.55;;;3.03;;
34765;SDS011;20984;43.508;1.504;2023-12-14T12:02:01;5.25;;;3.20;;
34765;SDS011;20984;43.508;1.504;2023-12-14T12:04:26;4.47;;;2.78;;
34765;SDS011;20984;43.508;1.504;2023-12-14T12:07:00;6.72;;;2.60;;
34765;SDS011;20984;43.508;1.504;2023-12-14T12:09:34;5.95;;;2.85;;
34765;SDS011;20984;43.508;1.504;2023-12-14T12:12:01;11.52;;;3.60;;
34765;SDS011;20984;43.508;1.504;2023-12-14T12:14:30;8.02;;;2.92;;
34765;SDS011;20984;43.508;1.504;2023-12-14T12:16:55;5.57;;;2.42;;
34765;SDS011;20984;43.508;1.504;2023-12-14T12:19:21;8.00;;;2.70;;
34765;SDS011;20984;43.508;1.504;2023-12-14T12:21:46;4.10;;;2.50;;
34765;SDS011;20984;43.508;1.504;2023-12-14T12:24:12;5.22;;;3.08;;
34765;SDS011;20984;43.508;1.504;2023-12-14T12:26:38;6.93;;;3.08;;
34765;SDS011;20984;43.508;1.504;2023-12-14T12:29:03;2.70;;;2.50;;
34765;SDS011;20984;43.508;1.504;2023-12-14T12:31:31;6.07;;;3.00;;
34765;SDS011;20984;43.508;1.504;2023-12-14T12:33:58;2.63;;;2.25;;
34765;SDS011;20984;43.508;1.504;2023-12-14T12:36:23;4.55;;;2.38;;
34765;SDS011;20984;43.508;1.504;2023-12-14T12:38:49;2.60;;;2.40;;
34765;SDS011;20984;43.508;1.504;2023-12-14T12:41:16;2.25;;;2.05;;
34765;SDS011;20984;43.508;1.504;2023-12-14T12:43:42;7.00;;;2.90;;
34765;SDS011;20984;43.508;1.504;2023-12-14T12:46:09;5.10;;;2.40;;
34765;SDS011;20984;43.508;1.504;2023-12-14T12:48:35;4.00;;;2.55;;
34765;SDS011;20984;43.508;1.504;2023-12-14T12:51:01;3.13;;;2.40;;
34765;SDS011;20984;43.508;1.504;2023-12-14T12:53:27;3.15;;;2.58;;
34765;SDS011;20984;43.508;1.504;2023-12-14T12:55:53;3.53;;;2.35;;
34765;SDS011;20984;43.508;1.504;2023-12-14T12:58:19;7.07;;;3.38;;
34765;SDS011;20984;43.508;1.504;2023-12-14T13:00:44;5.55;;;3.13;;
34765;SDS011;20984;43.508;1.504;2023-12-14T13:03:10;9.00;;;4.95;;
34765;SDS011;20984;43.508;1.504;2023-12-14T13:05:36;3.33;;;2.45;;
34765;SDS011;20984;43.508;1.504;2023-12-14T13:08:02;5.32;;;2.75;;
34765;SDS011;20984;43.508;1.504;2023-12-14T13:10:27;5.82;;;2.80;;
34765;SDS011;20984;43.508;1.504;2023-12-14T13:12:53;9.15;;;2.70;;
34765;SDS011;20984;43.508;1.504;2023-12-14T13:15:19;5.43;;;2.40;;
34765;SDS011;20984;43.508;1.504;2023-12-14T13:17:48;4.35;;;2.78;;
34765;SDS011;20984;43.508;1.504;2023-12-14T13:20:14;4.63;;;2.78;;
34765;SDS011;20984;43.508;1.504;2023-12-14T13:22:40;6.00;;;2.45;;
34765;SDS011;20984;43.508;1.504;2023-12-14T13:25:05;4.07;;;2.65;;
34765;SDS011;20984;43.508;1.504;2023-12-14T13:27:31;8.43;;;2.83;;
34765;SDS011;20984;43.508;1.504;2023-12-14T13:29:57;4.65;;;3.67;;
34765;SDS011;20984;43.508;1.504;2023-12-14T13:32:22;4.53;;;3.13;;
34765;SDS011;20984;43.508;1.504;2023-12-14T13:34:48;5.85;;;2.80;;
34765;SDS011;20984;43.508;1.504;2023-12-14T13:37:14;4.28;;;2.70;;
34765;SDS011;20984;43.508;1.504;2023-12-14T13:39:39;6.50;;;3.80;;
34765;SDS011;20984;43.508;1.504;2023-12-14T13:42:05;10.95;;;3.88;;
34765;SDS011;20984;43.508;1.504;2023-12-14T13:44:31;5.00;;;2.83;;
34765;SDS011;20984;43.508;1.504;2023-12-14T13:47:03;4.13;;;2.90;;
34765;SDS011;20984;43.508;1.504;2023-12-14T13:49:29;3.55;;;2.40;;
34765;SDS011;20984;43.508;1.504;2023-12-14T13:51:55;4.60;;;2.85;;
34765;SDS011;20984;43.508;1.504;2023-12-14T13:54:21;4.85;;;2.92;;
34765;SDS011;20984;43.508;1.504;2023-12-14T13:56:46;4.53;;;2.72;;
34765;SDS011;20984;43.508;1.504;2023-12-14T13:59:12;8.60;;;2.65;;
34765;SDS011;20984;43.508;1.504;2023-12-14T14:01:37;5.50;;;2.80;;
34765;SDS011;20984;43.508;1.504;2023-12-14T14:04:03;7.35;;;3.47;;
34765;SDS011;20984;43.508;1.504;2023-12-14T14:06:29;4.40;;;2.70;;
34765;SDS011;20984;43.508;1.504;2023-12-14T14:08:54;6.22;;;2.63;;
34765;SDS011;20984;43.508;1.504;2023-12-14T14:11:20;5.47;;;3.28;;
34765;SDS011;20984;43.508;1.504;2023-12-14T14:13:47;9.00;;;3.05;;
34765;SDS011;20984;43.508;1.504;2023-12-14T14:16:13;6.40;;;3.20;;
34765;SDS011;20984;43.508;1.504;2023-12-14T14:18:39;4.57;;;3.22;;
34765;SDS011;20984;43.508;1.504;2023-12-14T14:21:04;6.47;;;3.28;;
34765;SDS011;20984;43.508;1.504;2023-12-14T14:23:34;4.07;;;2.60;;
34765;SDS011;20984;43.508;1.504;2023-12-14T14:26:00;3.65;;;2.63;;
34765;SDS011;20984;43.508;1.504;2023-12-14T14:28:25;4.43;;;3.15;;
34765;SDS011;20984;43.508;1.504;2023-12-14T14:30:51;11.48;;;4.90;;
34765;SDS011;20984;43.508;1.504;2023-12-14T14:33:17;5.93;;;3.17;;
34765;SDS011;20984;43.508;1.504;2023-12-14T14:35:46;5.90;;;2.65;;
34765;SDS011;20984;43.508;1.504;2023-12-14T14:38:13;8.20;;;3.50;;
34765;SDS011;20984;43.508;1.504;2023-12-14T14:40:39;5.05;;;2.78;;
34765;SDS011;20984;43.508;1.504;2023-12-14T14:43:05;5.30;;;4.80;;
34765;SDS011;20984;43.508;1.504;2023-12-14T14:45:31;6.65;;;2.72;;